Simcoe-Lingwood

*Note: All times are displayed in the local standard time of the station location.
**Rain - Equipment is designed to accurately record liquid precipitation; under conditions when precipitation is not in liquid form, the data displayed may not properly reflect rainfall values.

Date Max Temp
(°C)
Min Temp
(°C)
Avg Temp
(°C)
Rain (mm) Avg RH (%)
Wed, Apr 17, 2019 14.2 1.1 7.2 - 83.1
Tue, Apr 16, 2019 5.7 -3.2 2.5 - 88.7
Mon, Apr 15, 2019 8.7 0.6 4.1 - 76.6
Sun, Apr 14, 2019 7.5 1.7 3.2 - 86.1
Sat, Apr 13, 2019 12.9 7.1 10.2 - 52.5
Fri, Apr 12, 2019 18.0 2.1 10.1 - 79.5
Thu, Apr 11, 2019 5.1 0.4 1.9 - 77.5
DateTime Avg Temp (°C) Rain (mm) RH (%)
Thu, Apr 18, 2019 08:00 12.7 - 76.7
Thu, Apr 18, 2019 07:00 11.5 - 80.1
Thu, Apr 18, 2019 06:00 10.9 - 80.6
Thu, Apr 18, 2019 05:00 10.5 - 81.5
Thu, Apr 18, 2019 04:00 9.4 - 85.1
Thu, Apr 18, 2019 03:00 7.8 - 92.6
Thu, Apr 18, 2019 02:00 6.7 - 95.0
Thu, Apr 18, 2019 01:00 6.6 - 92.2
Thu, Apr 18, 2019 00:00 6.6 - 91.4
Wed, Apr 17, 2019 23:00 7.1 - 81.6
Wed, Apr 17, 2019 22:00 7.3 - 80.1
Wed, Apr 17, 2019 21:00 7.9 - 76.7
Wed, Apr 17, 2019 20:00 9.3 - 72.6
Wed, Apr 17, 2019 19:00 10.4 - 70.7
Wed, Apr 17, 2019 18:00 11.9 - 67.1
Wed, Apr 17, 2019 17:00 13.1 - 67.2
Wed, Apr 17, 2019 16:00 14.0 - 65.2
Wed, Apr 17, 2019 15:00 14.0 - 66.1
Wed, Apr 17, 2019 14:00 13.4 - 65.7
Wed, Apr 17, 2019 13:00 12.5 - 63.9
Wed, Apr 17, 2019 12:00 11.2 - 63.7
Wed, Apr 17, 2019 11:00 9.1 - 73.0
Wed, Apr 17, 2019 10:00 6.3 - 90.8
Wed, Apr 17, 2019 09:00 3.3 - 99.9
Wed, Apr 17, 2019 08:00 1.7 - 99.9
Wed, Apr 17, 2019 07:00 1.3 - 99.9
Wed, Apr 17, 2019 06:00 1.2 - 99.9
Wed, Apr 17, 2019 05:00 1.6 - 99.9
Wed, Apr 17, 2019 04:00 2.2 - 99.9
Wed, Apr 17, 2019 03:00 2.1 - 99.9
Wed, Apr 17, 2019 02:00 2.5 - 99.5
Wed, Apr 17, 2019 01:00 3.8 - 99.3
Wed, Apr 17, 2019 00:00 3.8 - 99.3
Tue, Apr 16, 2019 23:00 3.8 - 99.1
Tue, Apr 16, 2019 22:00 3.8 - 98.5
Tue, Apr 16, 2019 21:00 3.6 - 98.8
Tue, Apr 16, 2019 20:00 3.7 - 98.9
Tue, Apr 16, 2019 19:00 3.8 - 98.4
Tue, Apr 16, 2019 18:00 3.8 - 98.0
Tue, Apr 16, 2019 17:00 4.2 - 97.5
Tue, Apr 16, 2019 16:00 4.7 - 96.6
Tue, Apr 16, 2019 15:00 4.9 - 95.8
Tue, Apr 16, 2019 14:00 5.1 - 92.0
Tue, Apr 16, 2019 13:00 5.1 - 90.5
Tue, Apr 16, 2019 12:00 5.2 - 82.7
Tue, Apr 16, 2019 11:00 5.5 - 69.2
Tue, Apr 16, 2019 10:00 4.6 - 71.3
Tue, Apr 16, 2019 09:00 2.7 - 78.4


asterix Register now to access more data! asterix